Weather at Charleston International Airport

Public forecast

Using degrees Fahrenheit for public forecast. Weather courtesy of forecast.io.

Current aviation weather report (METAR) for Charleston International Airport

2024/05/30 15:56 (retrieved 5 minutes ago)

KCHS 301556Z 34007KT 320V030 10SM FEW200 SCT250 28/12 A3007 RMK AO2 SLP183 T02780122

Aviation forecast (TAF) for Charleston International Airport

2024/05/30 12:28 (retrieved 4 hours ago)

TAF KCHS 301124Z 3012/3112 36008KT P6SM FEW250 FM302200 VRB03KT P6SM FEW250